createdAt,value
2022-10-12T00:00:17.848Z,55.06
2022-10-12T00:02:19.651Z,55.25
2022-10-12T00:04:21.465Z,55.19
2022-10-12T00:06:24.111Z,55.34
2022-10-12T00:08:25.612Z,55.32
2022-10-12T00:10:27.137Z,55.22
2022-10-12T00:12:28.712Z,55.31
2022-10-12T00:14:30.355Z,55.27
2022-10-12T00:16:31.871Z,55.41
2022-10-12T00:18:34.651Z,55.25
2022-10-12T00:20:36.669Z,55.38
2022-10-12T00:22:38.297Z,55.27
2022-10-12T00:24:42.853Z,55.36
2022-10-12T00:26:44.671Z,55.38
2022-10-12T00:28:47.273Z,55.39
2022-10-12T00:30:48.861Z,55.32
2022-10-12T00:32:50.405Z,55.28
2022-10-12T00:34:52.267Z,55.36
2022-10-12T00:36:55.356Z,55.29
2022-10-12T00:38:57.502Z,55.46
2022-10-12T00:40:59.119Z,55.32
2022-10-12T00:43:00.704Z,55.43
2022-10-12T00:45:02.558Z,55.30
2022-10-12T00:47:12.434Z,55.05
2022-10-12T00:49:20.613Z,55.13
2022-10-12T00:51:23.034Z,55.13
2022-10-12T00:53:28.524Z,55.12
2022-10-12T00:55:35.751Z,54.95
2022-10-12T00:57:38.118Z,54.88
2022-10-12T00:59:49.829Z,54.92
2022-10-12T01:01:51.755Z,54.94
2022-10-12T01:03:54.023Z,55.09
2022-10-12T01:05:56.108Z,54.97
2022-10-12T01:07:59.682Z,55.06
2022-10-12T01:10:02.282Z,55.02
2022-10-12T01:12:07.071Z,54.99
2022-10-12T01:14:08.794Z,54.96
2022-10-12T01:16:20.343Z,54.85
2022-10-12T01:18:33.377Z,54.86
2022-10-12T01:20:50.259Z,54.63
2022-10-12T01:23:03.849Z,54.63
2022-10-12T01:25:15.496Z,54.69
2022-10-12T01:27:33.197Z,54.74
2022-10-12T01:29:59.138Z,54.52
2022-10-12T01:32:30.106Z,54.62
2022-10-12T01:34:53.076Z,54.79
2022-10-12T01:37:08.262Z,54.85
2022-10-12T01:39:21.797Z,54.97
2022-10-12T01:41:34.620Z,55.04
2022-10-12T01:43:40.110Z,54.84
2022-10-12T01:45:41.601Z,54.90
2022-10-12T01:47:48.269Z,55.02
2022-10-12T01:49:49.901Z,55.21
2022-10-12T01:52:01.717Z,55.21
2022-10-12T01:54:26.299Z,55.02
2022-10-12T01:56:39.729Z,55.00
2022-10-12T01:59:29.064Z,54.99
2022-10-12T02:01:41.359Z,55.13
2022-10-12T02:03:50.737Z,55.07
2022-10-12T02:06:00.635Z,55.19
2022-10-12T02:08:28.253Z,55.17
2022-10-12T02:10:37.334Z,55.27
2022-10-12T02:12:40.881Z,55.22
2022-10-12T02:14:47.295Z,55.24
2022-10-12T02:16:54.266Z,55.23
2022-10-12T02:18:57.762Z,55.28
2022-10-12T02:21:00.849Z,55.36
2022-10-12T02:23:03.440Z,55.30
2022-10-12T02:25:09.339Z,55.30
2022-10-12T02:27:14.199Z,55.50
2022-10-12T02:29:20.666Z,55.47
2022-10-12T02:31:47.639Z,55.82
2022-10-12T02:34:00.216Z,55.82
2022-10-12T02:36:19.476Z,55.99
2022-10-12T02:38:47.008Z,56.00
2022-10-12T02:40:55.105Z,56.01
2022-10-12T02:43:10.323Z,55.93
2022-10-12T02:45:14.001Z,55.81
2022-10-12T02:47:18.005Z,55.86
2022-10-12T02:49:22.329Z,55.79
2022-10-12T02:51:24.985Z,55.73
2022-10-12T02:53:29.096Z,55.75
2022-10-12T02:55:31.961Z,55.81
2022-10-12T02:57:33.646Z,55.78
2022-10-12T02:59:35.225Z,56.01
2022-10-12T03:01:36.844Z,55.71
2022-10-12T03:03:41.276Z,55.67
2022-10-12T03:05:42.877Z,55.63
2022-10-12T03:07:44.396Z,55.66
2022-10-12T03:09:46.054Z,55.73
2022-10-12T03:11:48.104Z,55.68
2022-10-12T03:13:53.850Z,55.62
2022-10-12T03:16:02.040Z,55.67
2022-10-12T03:18:04.103Z,55.72
2022-10-12T03:20:06.457Z,55.75
2022-10-12T03:22:08.417Z,55.55
2022-10-12T03:24:10.382Z,55.58
2022-10-12T03:26:12.360Z,55.55
2022-10-12T03:28:14.034Z,55.38
2022-10-12T03:30:15.944Z,55.59
2022-10-12T03:32:17.989Z,55.31
2022-10-12T03:34:19.636Z,55.49
2022-10-12T03:36:21.441Z,55.42
2022-10-12T03:38:23.405Z,55.52
2022-10-12T03:40:25.219Z,55.71
2022-10-12T03:42:26.760Z,55.67
2022-10-12T03:44:28.283Z,55.48
2022-10-12T03:46:29.864Z,55.48
2022-10-12T03:48:31.516Z,55.41
2022-10-12T03:50:35.057Z,55.43
2022-10-12T03:52:36.813Z,55.50
2022-10-12T03:54:38.584Z,55.58
2022-10-12T03:56:40.702Z,55.59
2022-10-12T03:58:42.237Z,55.73
2022-10-12T04:00:43.789Z,55.62
2022-10-12T04:02:45.376Z,55.81
2022-10-12T04:04:46.884Z,55.55
2022-10-12T04:06:48.710Z,55.82
2022-10-12T04:08:51.094Z,55.64
2022-10-12T04:10:52.924Z,55.77
2022-10-12T04:12:54.402Z,55.59
2022-10-12T04:14:55.861Z,55.81
2022-10-12T04:16:57.439Z,56.00
2022-10-12T04:18:58.922Z,55.94
2022-10-12T04:21:01.252Z,55.97
2022-10-12T04:23:02.961Z,55.80
2022-10-12T04:25:04.849Z,56.08
2022-10-12T04:27:06.603Z,55.94
2022-10-12T04:29:08.158Z,55.96
2022-10-12T04:31:09.993Z,55.91
2022-10-12T04:33:11.856Z,56.06
2022-10-12T04:35:13.841Z,55.82
2022-10-12T04:37:15.401Z,55.86
2022-10-12T04:39:17.141Z,56.14
2022-10-12T04:41:19.913Z,56.17
2022-10-12T04:43:21.582Z,55.83
2022-10-12T04:45:23.240Z,55.95
2022-10-12T04:47:27.976Z,55.89
2022-10-12T04:49:29.738Z,55.90
2022-10-12T04:51:32.140Z,55.89
2022-10-12T04:53:33.797Z,56.06
2022-10-12T04:55:37.702Z,55.92
2022-10-12T04:57:41.956Z,55.81
2022-10-12T04:59:43.692Z,55.80
2022-10-12T05:01:45.507Z,55.82
2022-10-12T05:03:47.190Z,55.80
2022-10-12T05:05:48.991Z,55.92
2022-10-12T05:07:50.868Z,55.95
2022-10-12T05:09:52.400Z,56.04
2022-10-12T05:11:54.053Z,56.04
2022-10-12T05:13:55.681Z,56.16
2022-10-12T05:15:57.578Z,56.29
2022-10-12T05:17:59.475Z,56.01
2022-10-12T05:20:00.980Z,56.14
2022-10-12T05:22:02.733Z,56.21
2022-10-12T05:24:04.641Z,56.35
2022-10-12T05:26:09.238Z,56.19
2022-10-12T05:28:10.972Z,56.09
2022-10-12T05:30:13.061Z,56.16
2022-10-12T05:32:15.563Z,56.31
2022-10-12T05:34:17.089Z,56.71
2022-10-12T05:36:18.811Z,56.25
2022-10-12T05:38:20.460Z,56.34
2022-10-12T05:40:22.042Z,56.48
2022-10-12T05:42:23.550Z,56.56
2022-10-12T05:44:25.026Z,56.56
2022-10-12T05:46:29.371Z,56.42
2022-10-12T05:48:31.289Z,56.43
2022-10-12T05:50:33.027Z,56.63
2022-10-12T05:52:34.966Z,56.65
2022-10-12T05:54:36.567Z,56.64
2022-10-12T05:56:38.321Z,56.50
2022-10-12T05:58:39.885Z,56.61
2022-10-12T06:00:41.424Z,56.66
2022-10-12T06:02:43.096Z,56.60
2022-10-12T06:04:44.936Z,56.45
2022-10-12T06:06:46.613Z,56.69
2022-10-12T06:08:48.223Z,56.53
2022-10-12T06:10:51.672Z,56.42
2022-10-12T06:12:53.279Z,56.71
2022-10-12T06:14:55.218Z,56.57
2022-10-12T06:16:58.284Z,56.58
2022-10-12T06:18:59.745Z,56.50
2022-10-12T06:21:21.505Z,56.66
2022-10-12T06:23:23.006Z,56.49
2022-10-12T06:25:24.683Z,56.73
2022-10-12T06:27:26.340Z,56.67
2022-10-12T06:29:28.062Z,56.55
2022-10-12T06:31:29.655Z,56.79
2022-10-12T06:33:31.161Z,56.54
2022-10-12T06:35:33.365Z,56.52
2022-10-12T06:37:49.670Z,56.52
2022-10-12T06:39:52.291Z,56.46
2022-10-12T06:41:54.673Z,56.56
2022-10-12T06:43:56.169Z,56.34
2022-10-12T06:46:02.034Z,56.50
2022-10-12T06:48:04.886Z,56.46
2022-10-12T06:50:08.921Z,56.41
2022-10-12T06:52:10.557Z,56.39
2022-10-12T06:54:12.161Z,56.41
2022-10-12T06:56:14.347Z,56.50
2022-10-12T06:58:15.890Z,56.64
2022-10-12T07:00:17.790Z,56.68
2022-10-12T07:02:19.602Z,56.87
2022-10-12T07:04:21.233Z,56.80
2022-10-12T07:06:23.025Z,56.72
2022-10-12T07:08:25.033Z,56.82
2022-10-12T07:10:27.134Z,56.87
2022-10-12T07:12:28.829Z,56.95
2022-10-12T07:14:30.281Z,56.88
2022-10-12T07:16:32.147Z,56.97
2022-10-12T07:18:34.240Z,56.82
2022-10-12T07:20:35.909Z,56.93
2022-10-12T07:22:37.755Z,57.01
2022-10-12T07:24:39.269Z,57.22
2022-10-12T07:26:41.058Z,57.11
2022-10-12T07:28:42.818Z,57.01
2022-10-12T07:30:45.180Z,56.97
2022-10-12T07:32:47.792Z,57.01
2022-10-12T07:34:49.452Z,57.26
2022-10-12T07:36:59.789Z,57.23
2022-10-12T07:39:01.935Z,57.10
2022-10-12T07:41:04.638Z,57.00
2022-10-12T07:43:15.581Z,57.02
2022-10-12T07:45:18.209Z,56.86
2022-10-12T07:47:22.713Z,56.79
2022-10-12T07:49:24.204Z,56.96
2022-10-12T07:51:25.928Z,56.98
2022-10-12T07:53:27.525Z,57.00
2022-10-12T07:55:32.310Z,57.11
2022-10-12T07:57:34.040Z,56.99
2022-10-12T07:59:35.737Z,56.92
2022-10-12T08:01:37.566Z,57.04
2022-10-12T08:03:41.810Z,56.89
2022-10-12T08:05:43.653Z,56.74
2022-10-12T08:07:45.297Z,57.01
2022-10-12T08:09:48.643Z,56.85
2022-10-12T08:11:50.489Z,56.71
2022-10-12T08:13:52.114Z,56.75
2022-10-12T08:15:53.706Z,56.66
2022-10-12T08:17:55.389Z,56.65
2022-10-12T08:19:56.912Z,56.72
2022-10-12T08:21:58.843Z,56.80
2022-10-12T08:24:00.901Z,56.76
2022-10-12T08:26:03.523Z,56.66
2022-10-12T08:28:05.870Z,56.76
2022-10-12T08:30:08.278Z,57.00
2022-10-12T08:32:09.939Z,56.79
2022-10-12T08:34:11.500Z,56.92
2022-10-12T08:36:14.368Z,56.71
2022-10-12T08:38:16.461Z,56.78
2022-10-12T08:40:25.819Z,56.82
2022-10-12T08:42:44.928Z,56.87
2022-10-12T08:45:06.657Z,57.03
2022-10-12T08:47:17.841Z,56.87
2022-10-12T08:49:24.200Z,56.57
2022-10-12T08:51:30.949Z,56.96
2022-10-12T08:53:43.574Z,57.17
2022-10-12T08:55:46.870Z,57.27
2022-10-12T08:57:50.049Z,57.40
2022-10-12T08:59:52.217Z,57.59
2022-10-12T09:02:34.533Z,57.95
2022-10-12T09:05:15.288Z,58.42
2022-10-12T09:07:42.191Z,58.83
2022-10-12T09:10:08.095Z,59.04
2022-10-12T09:12:35.928Z,59.30
2022-10-12T09:14:40.294Z,58.66
2022-10-12T09:16:46.291Z,58.49
2022-10-12T09:18:53.875Z,58.50
2022-10-12T09:20:57.082Z,58.60
2022-10-12T09:23:04.933Z,58.35
2022-10-12T09:25:14.463Z,58.38
2022-10-12T09:27:19.699Z,57.86
2022-10-12T09:29:28.247Z,57.64
2022-10-12T09:31:52.115Z,57.13
2022-10-12T09:33:57.503Z,56.70
2022-10-12T09:35:59.296Z,56.51
2022-10-12T09:38:01.782Z,55.99
2022-10-12T09:40:04.259Z,56.04
2022-10-12T09:42:06.063Z,55.46
2022-10-12T09:44:15.357Z,55.59
2022-10-12T09:46:48.286Z,55.26
2022-10-12T09:49:00.291Z,54.85
2022-10-12T09:51:03.929Z,54.61
2022-10-12T09:53:36.047Z,54.56
2022-10-12T09:55:37.901Z,54.04
2022-10-12T09:57:41.917Z,53.90
2022-10-12T09:59:45.006Z,53.55
2022-10-12T10:02:13.932Z,52.64
2022-10-12T10:04:23.160Z,52.89
2022-10-12T10:06:26.102Z,52.77
2022-10-12T10:08:27.986Z,52.54
2022-10-12T10:10:30.832Z,52.10
2022-10-12T10:12:32.928Z,51.72
2022-10-12T10:14:35.938Z,51.56
2022-10-12T10:16:49.187Z,50.87
2022-10-12T10:18:54.056Z,51.25
2022-10-12T10:21:00.849Z,50.43
2022-10-12T10:23:03.927Z,50.69
2022-10-12T10:25:06.766Z,50.59
2022-10-12T10:27:29.372Z,50.22
2022-10-12T10:29:38.956Z,49.72
2022-10-12T10:31:40.773Z,49.71
2022-10-12T10:33:44.033Z,49.58
2022-10-12T10:35:58.962Z,49.05
2022-10-12T10:38:00.965Z,48.69
2022-10-12T10:40:03.298Z,48.31
2022-10-12T10:42:24.838Z,47.17
2022-10-12T10:44:33.236Z,47.58
2022-10-12T10:46:37.337Z,48.07
2022-10-12T10:48:53.277Z,47.43
2022-10-12T10:51:02.097Z,47.64
2022-10-12T10:53:18.632Z,47.16
2022-10-12T10:55:23.442Z,47.57
2022-10-12T10:57:28.114Z,47.29
2022-10-12T10:59:39.454Z,46.78
2022-10-12T11:01:51.470Z,46.82
2022-10-12T11:04:07.918Z,46.73
2022-10-12T11:06:32.488Z,46.55
2022-10-12T11:08:36.176Z,46.83
2022-10-12T11:10:44.999Z,47.11
2022-10-12T11:12:51.866Z,46.65
2022-10-12T11:15:12.889Z,46.73
2022-10-12T11:17:24.081Z,46.85
2022-10-12T11:19:41.115Z,46.52
2022-10-12T11:21:51.853Z,46.66
2022-10-12T11:24:17.365Z,46.36
2022-10-12T11:26:27.760Z,46.38
2022-10-12T11:28:32.662Z,46.68
2022-10-12T11:30:46.392Z,46.51
2022-10-12T11:32:58.145Z,46.36
2022-10-12T11:35:02.693Z,46.56
2022-10-12T11:37:21.334Z,46.46
2022-10-12T11:39:38.274Z,45.96
2022-10-12T11:42:09.723Z,46.62
2022-10-12T11:44:30.395Z,46.18
2022-10-12T11:47:04.452Z,46.02
2022-10-12T11:49:14.758Z,46.21
2022-10-12T11:51:16.345Z,45.93
2022-10-12T11:53:28.617Z,46.44
2022-10-12T11:55:37.672Z,46.57
2022-10-12T11:57:40.102Z,46.46
2022-10-12T11:59:49.810Z,45.96
2022-10-12T12:02:11.207Z,45.93
2022-10-12T12:04:43.351Z,46.28
2022-10-12T12:06:52.158Z,45.98
2022-10-12T12:08:53.824Z,46.39
2022-10-12T12:11:19.463Z,46.00
2022-10-12T12:13:23.833Z,45.94
2022-10-12T12:15:25.424Z,45.94
2022-10-12T12:17:32.212Z,46.06
2022-10-12T12:19:36.762Z,45.70
2022-10-12T12:22:15.841Z,45.48
2022-10-12T12:24:18.721Z,45.72
2022-10-12T12:26:23.405Z,45.56
2022-10-12T12:28:25.231Z,45.39
2022-10-12T12:30:36.716Z,45.36
2022-10-12T12:32:59.450Z,45.03
2022-10-12T12:35:01.311Z,45.62
2022-10-12T12:37:12.799Z,45.02
2022-10-12T12:39:35.154Z,45.12
2022-10-12T12:42:02.033Z,45.25
2022-10-12T12:44:04.666Z,45.41
2022-10-12T12:46:13.229Z,44.86
2022-10-12T12:48:43.853Z,44.44
2022-10-12T12:50:45.729Z,44.93
2022-10-12T12:52:47.431Z,45.07
2022-10-12T12:54:58.256Z,44.88
2022-10-12T12:57:30.291Z,44.33
2022-10-12T12:59:59.261Z,44.52
2022-10-12T13:02:23.782Z,44.44
2022-10-12T13:04:40.085Z,44.05
2022-10-12T13:07:20.066Z,43.56
2022-10-12T13:09:32.826Z,43.98
2022-10-12T13:11:43.625Z,44.02
2022-10-12T13:14:03.264Z,43.78
2022-10-12T13:16:57.106Z,43.56
2022-10-12T13:19:00.758Z,43.72
2022-10-12T13:21:06.695Z,43.36
2022-10-12T13:23:14.930Z,43.55
2022-10-12T13:25:40.212Z,43.22
2022-10-12T13:27:53.565Z,43.28
2022-10-12T13:30:28.309Z,43.16
2022-10-12T13:33:06.492Z,43.38
2022-10-12T13:35:40.409Z,43.25
2022-10-12T13:37:42.141Z,43.36
2022-10-12T13:39:47.326Z,43.30
2022-10-12T13:41:53.465Z,42.99
2022-10-12T13:44:00.656Z,42.62
2022-10-12T13:46:02.789Z,42.88
2022-10-12T13:48:05.102Z,42.98
2022-10-12T13:50:17.056Z,42.41
2022-10-12T13:52:38.883Z,42.37
2022-10-12T13:54:49.143Z,42.43
2022-10-12T13:57:21.297Z,42.55
2022-10-12T13:59:25.478Z,42.83
2022-10-12T14:01:27.707Z,42.73
2022-10-12T14:03:41.634Z,42.52
2022-10-12T14:05:45.685Z,42.91
2022-10-12T14:07:49.504Z,42.81
2022-10-12T14:09:55.335Z,42.67
2022-10-12T14:11:57.409Z,42.51
2022-10-12T14:14:00.651Z,42.39
2022-10-12T14:16:05.390Z,42.62
2022-10-12T14:18:35.466Z,42.41
2022-10-12T14:20:39.177Z,42.74
2022-10-12T14:22:49.620Z,42.41
2022-10-12T14:25:10.636Z,42.33
2022-10-12T14:27:22.890Z,42.31
2022-10-12T14:29:43.124Z,42.42
2022-10-12T14:31:49.722Z,42.99
2022-10-12T14:33:51.364Z,42.72
2022-10-12T14:36:15.317Z,42.61
2022-10-12T14:38:37.368Z,43.17
2022-10-12T14:40:39.540Z,43.00
2022-10-12T14:42:59.522Z,43.16
2022-10-12T14:45:03.935Z,43.15
2022-10-12T14:47:16.429Z,42.84
2022-10-12T14:49:25.035Z,42.94
2022-10-12T14:51:27.082Z,42.95
2022-10-12T14:53:29.657Z,43.16
2022-10-12T14:55:33.556Z,43.52
2022-10-12T14:57:35.302Z,43.61
2022-10-12T14:59:36.886Z,43.23
2022-10-12T15:01:41.819Z,43.39
2022-10-12T15:03:44.936Z,43.64
2022-10-12T15:05:47.135Z,43.38
2022-10-12T15:07:52.472Z,43.59
2022-10-12T15:09:58.613Z,43.37
2022-10-12T15:12:00.309Z,43.92
2022-10-12T15:14:08.117Z,43.62
2022-10-12T15:16:21.993Z,43.88
2022-10-12T15:18:25.226Z,43.93
2022-10-12T15:20:29.907Z,43.69
2022-10-12T15:22:31.622Z,43.93
2022-10-12T15:24:35.590Z,44.04
2022-10-12T15:26:42.081Z,44.05
2022-10-12T15:28:45.205Z,44.18
2022-10-12T15:31:15.319Z,44.07
2022-10-12T15:33:11.463Z,44.38
2022-10-12T15:35:25.590Z,44.00
2022-10-12T15:37:31.146Z,44.31
2022-10-12T15:39:33.130Z,44.39
2022-10-12T15:41:34.889Z,44.54
2022-10-12T15:43:39.593Z,44.47
2022-10-12T15:45:43.788Z,44.65
2022-10-12T15:47:50.332Z,44.69
2022-10-12T15:49:51.909Z,44.70
2022-10-12T15:51:55.031Z,44.76
2022-10-12T15:53:56.855Z,44.93
2022-10-12T15:55:58.431Z,45.02
2022-10-12T15:58:00.517Z,45.01
2022-10-12T16:00:02.571Z,44.92
2022-10-12T16:02:13.763Z,45.05
2022-10-12T16:04:15.772Z,45.29
2022-10-12T16:06:17.651Z,45.52
2022-10-12T16:08:19.242Z,45.25
2022-10-12T16:10:24.886Z,45.42
2022-10-12T16:12:26.954Z,45.60
2022-10-12T16:14:28.818Z,45.76
2022-10-12T16:16:32.279Z,45.50
2022-10-12T16:18:33.989Z,45.71
2022-10-12T16:20:37.578Z,45.93
2022-10-12T16:22:40.398Z,46.07
2022-10-12T16:24:42.295Z,46.10
2022-10-12T16:26:45.134Z,46.00
2022-10-12T16:28:47.313Z,46.25
2022-10-12T16:30:49.917Z,46.14
2022-10-12T16:32:52.298Z,46.56
2022-10-12T16:34:54.115Z,46.54
2022-10-12T16:36:56.192Z,46.40
2022-10-12T16:38:58.107Z,46.45
2022-10-12T16:40:59.842Z,46.55
2022-10-12T16:43:01.633Z,46.63
2022-10-12T16:45:03.721Z,46.85
2022-10-12T16:47:05.790Z,46.65
2022-10-12T16:49:07.513Z,46.97
2022-10-12T16:51:10.553Z,47.04
2022-10-12T16:53:12.335Z,46.94
2022-10-12T16:55:14.342Z,47.29
2022-10-12T16:57:16.380Z,46.98
2022-10-12T16:59:18.361Z,47.31
2022-10-12T17:01:20.137Z,47.37
2022-10-12T17:03:21.936Z,47.16
2022-10-12T17:05:23.691Z,47.22
2022-10-12T17:07:26.095Z,47.57
2022-10-12T17:09:28.192Z,47.83
2022-10-12T17:11:29.833Z,47.62
2022-10-12T17:13:32.845Z,47.51
2022-10-12T17:15:38.566Z,47.44
2022-10-12T17:17:40.200Z,47.77
2022-10-12T17:19:41.973Z,48.00
2022-10-12T17:21:45.020Z,47.91
2022-10-12T17:23:46.685Z,48.17
2022-10-12T17:25:49.126Z,48.03
2022-10-12T17:27:50.644Z,48.39
2022-10-12T17:29:52.449Z,48.10
2022-10-12T17:31:55.321Z,48.09
2022-10-12T17:33:58.081Z,48.69
2022-10-12T17:35:59.515Z,48.58
2022-10-12T17:38:01.207Z,48.77
2022-10-12T17:40:03.681Z,48.33
2022-10-12T17:42:06.459Z,48.59
2022-10-12T17:44:08.618Z,48.51
2022-10-12T17:46:10.248Z,48.56
2022-10-12T17:48:14.406Z,48.49
2022-10-12T17:50:17.834Z,48.87
2022-10-12T17:52:19.560Z,48.76
2022-10-12T17:54:22.432Z,49.16
2022-10-12T17:56:24.074Z,49.05
2022-10-12T17:58:25.569Z,49.14
2022-10-12T18:00:27.523Z,49.33
2022-10-12T18:02:29.616Z,49.21
2022-10-12T18:04:31.293Z,49.23
2022-10-12T18:06:33.866Z,49.43
2022-10-12T18:08:35.966Z,49.57
2022-10-12T18:10:41.585Z,49.62
2022-10-12T18:12:45.158Z,49.75
2022-10-12T18:14:47.289Z,49.44
2022-10-12T18:16:48.877Z,49.65
2022-10-12T18:18:52.488Z,49.69
2022-10-12T18:20:54.321Z,49.84
2022-10-12T18:22:56.179Z,50.04
2022-10-12T18:24:58.083Z,50.00
2022-10-12T18:26:59.777Z,49.74
2022-10-12T18:29:02.046Z,49.72
2022-10-12T18:31:04.258Z,49.96
2022-10-12T18:33:06.032Z,49.95
2022-10-12T18:35:09.883Z,50.00
2022-10-12T18:37:11.798Z,49.97
2022-10-12T18:39:13.474Z,49.91
2022-10-12T18:41:18.154Z,50.13
2022-10-12T18:43:19.950Z,50.23
2022-10-12T18:45:21.769Z,50.12
2022-10-12T18:47:24.548Z,50.14
2022-10-12T18:49:26.489Z,50.29
2022-10-12T18:51:31.000Z,50.24
2022-10-12T18:53:34.242Z,50.31
2022-10-12T18:55:38.232Z,50.33
2022-10-12T18:57:40.211Z,50.24
2022-10-12T18:59:41.995Z,50.15
2022-10-12T19:01:45.059Z,50.38
2022-10-12T19:03:47.961Z,50.30
2022-10-12T19:05:49.421Z,50.46
2022-10-12T19:07:51.048Z,50.48
2022-10-12T19:09:52.922Z,50.51
2022-10-12T19:11:54.419Z,50.68
2022-10-12T19:14:02.531Z,50.65
2022-10-12T19:16:15.292Z,50.74
2022-10-12T19:18:16.835Z,50.72
2022-10-12T19:20:18.512Z,50.70
2022-10-12T19:22:20.879Z,50.72
2022-10-12T19:24:22.762Z,50.77
2022-10-12T19:26:27.163Z,50.75
2022-10-12T19:28:28.775Z,50.82
2022-10-12T19:30:31.454Z,50.81
2022-10-12T19:32:33.676Z,50.91
2022-10-12T19:34:35.549Z,50.86
2022-10-12T19:36:38.867Z,50.85
2022-10-12T19:38:41.161Z,50.88
2022-10-12T19:40:43.400Z,51.03
2022-10-12T19:42:47.714Z,51.04
2022-10-12T19:44:49.707Z,50.89
2022-10-12T19:46:53.511Z,51.07
2022-10-12T19:48:57.552Z,51.19
2022-10-12T19:51:01.619Z,51.17
2022-10-12T19:53:03.575Z,51.17
2022-10-12T19:55:05.906Z,51.23
2022-10-12T19:57:07.609Z,51.15
2022-10-12T19:59:09.520Z,51.22
2022-10-12T20:01:19.833Z,51.39
2022-10-12T20:03:21.812Z,51.27
2022-10-12T20:05:23.365Z,51.25
2022-10-12T20:07:25.118Z,51.43
2022-10-12T20:09:26.768Z,51.32
2022-10-12T20:11:28.946Z,51.41
2022-10-12T20:13:30.798Z,51.54
2022-10-12T20:15:32.483Z,51.42
2022-10-12T20:17:34.155Z,51.68
2022-10-12T20:19:36.851Z,51.73
2022-10-12T20:21:38.458Z,51.49
2022-10-12T20:23:42.710Z,51.69
2022-10-12T20:25:47.100Z,51.68
2022-10-12T20:27:49.272Z,51.90
2022-10-12T20:29:51.074Z,51.85
2022-10-12T20:31:52.718Z,52.07
2022-10-12T20:33:56.132Z,52.14
2022-10-12T20:35:58.145Z,52.09
2022-10-12T20:38:00.166Z,52.11
2022-10-12T20:40:02.014Z,52.02
2022-10-12T20:42:03.640Z,52.08
2022-10-12T20:44:05.457Z,52.22
2022-10-12T20:46:10.773Z,52.62
2022-10-12T20:48:12.299Z,52.45
2022-10-12T20:50:14.805Z,52.40
2022-10-12T20:52:16.752Z,52.26
2022-10-12T20:54:19.078Z,52.39
2022-10-12T20:56:20.735Z,52.55
2022-10-12T20:58:26.969Z,52.52
2022-10-12T21:00:29.438Z,52.53
2022-10-12T21:02:31.174Z,52.52
2022-10-12T21:04:38.173Z,52.54
2022-10-12T21:06:42.621Z,52.19
2022-10-12T21:08:44.818Z,52.25
2022-10-12T21:10:47.421Z,52.40
2022-10-12T21:12:48.916Z,52.37
2022-10-12T21:14:50.533Z,52.35
2022-10-12T21:16:52.919Z,52.31
2022-10-12T21:18:55.236Z,52.38
2022-10-12T21:20:58.852Z,52.47
2022-10-12T21:23:00.391Z,52.30
2022-10-12T21:25:02.005Z,52.38
2022-10-12T21:27:04.791Z,52.33
2022-10-12T21:29:06.745Z,51.99
2022-10-12T21:31:09.052Z,52.45
2022-10-12T21:33:10.576Z,52.55
2022-10-12T21:35:12.545Z,52.59
2022-10-12T21:37:14.245Z,52.34
2022-10-12T21:39:17.301Z,52.77
2022-10-12T21:41:21.901Z,52.56
2022-10-12T21:43:23.566Z,52.74
2022-10-12T21:45:25.058Z,52.49
2022-10-12T21:47:26.521Z,52.42
2022-10-12T21:49:28.309Z,52.75
2022-10-12T21:51:31.344Z,52.68
2022-10-12T21:53:36.563Z,52.76
2022-10-12T21:55:38.246Z,52.89
2022-10-12T21:57:39.740Z,52.67
2022-10-12T21:59:41.751Z,52.73
2022-10-12T22:01:43.423Z,52.52
2022-10-12T22:03:45.961Z,52.61
2022-10-12T22:05:47.596Z,52.64
2022-10-12T22:07:49.251Z,52.65
2022-10-12T22:09:50.790Z,52.67
2022-10-12T22:11:54.158Z,52.67
2022-10-12T22:14:01.299Z,52.82
2022-10-12T22:16:10.163Z,52.74
2022-10-12T22:18:11.874Z,52.66
2022-10-12T22:20:13.453Z,52.96
2022-10-12T22:22:20.387Z,52.74
2022-10-12T22:24:22.338Z,53.12
2022-10-12T22:26:24.534Z,53.16
2022-10-12T22:28:30.266Z,52.89
2022-10-12T22:30:32.129Z,53.12
2022-10-12T22:32:34.153Z,53.26
2022-10-12T22:34:35.937Z,53.08
2022-10-12T22:36:37.709Z,53.03
2022-10-12T22:38:41.875Z,53.24
2022-10-12T22:40:57.581Z,53.22
2022-10-12T22:42:59.338Z,53.03
2022-10-12T22:45:01.061Z,53.09
2022-10-12T22:47:02.821Z,53.09
2022-10-12T22:49:04.545Z,53.06
2022-10-12T22:51:07.008Z,53.09
2022-10-12T22:53:08.598Z,53.22
2022-10-12T22:55:10.339Z,53.16
2022-10-12T22:57:12.505Z,53.23
2022-10-12T22:59:15.617Z,53.28
2022-10-12T23:01:17.622Z,53.43
2022-10-12T23:03:19.239Z,53.58
2022-10-12T23:05:21.386Z,53.19
2022-10-12T23:07:22.913Z,53.21
2022-10-12T23:09:24.571Z,53.12
2022-10-12T23:11:28.629Z,53.24
2022-10-12T23:13:30.847Z,53.32
2022-10-12T23:15:35.278Z,53.44
2022-10-12T23:17:36.876Z,53.34
2022-10-12T23:19:38.669Z,53.37
2022-10-12T23:21:41.170Z,53.76
2022-10-12T23:23:44.253Z,53.69
2022-10-12T23:25:45.825Z,53.75
2022-10-12T23:27:47.452Z,53.68
2022-10-12T23:29:49.529Z,53.89
2022-10-12T23:31:51.209Z,53.69
2022-10-12T23:34:01.892Z,53.85
2022-10-12T23:36:12.087Z,53.66
2022-10-12T23:38:13.657Z,53.84
2022-10-12T23:40:15.553Z,53.72
2022-10-12T23:42:17.607Z,53.88
2022-10-12T23:44:19.515Z,54.16
2022-10-12T23:46:21.201Z,53.63
2022-10-12T23:48:23.621Z,53.61
2022-10-12T23:50:25.316Z,53.95
2022-10-12T23:52:27.023Z,53.76
2022-10-12T23:54:28.935Z,53.86
2022-10-12T23:56:30.596Z,53.76
2022-10-12T23:58:35.919Z,53.79
